3AL9 weather

Cullman Regional Medical Center Heliport
Cullman, Alabama, United States

Public forecast

Using degrees Fahrenheit for public forecast. Weather courtesy of forecast.io.

Closest aviation weather report (METAR) to Cullman Regional Medical Center Heliport

Closest report is Cullman Regional Airport-Folsom Field, 4.9 nm (9.0 km) NNW. Retrieved 2019/10/17 17:35 UTC (45 seconds ago):

KCMD 171735Z AUTO 36005KT 10SM CLR 15/02 A3008 RMK AO2 T01510017

Closest aviation forecast (TAF) to Cullman Regional Medical Center Heliport

Closest forecast is Huntsville International Carl T Jones Field, 26.3 nm (48.6 km) N. Retrieved 2019/10/17 12:30 UTC (5 hours ago):

TAF KHSV 171126Z 1712/1812 35005KT P6SM SKC FM180000 03003KT P6SM SCT250